sensor_id;sensor_type;location;lat;lon;timestamp;P1;P2;P0
64697;PMS5003;51124;53.394;-6.294;2023-02-22T00:01:32;2;0;
64697;PMS5003;51124;53.394;-6.294;2023-02-22T00:04:00;1;0;
64697;PMS5003;51124;53.394;-6.294;2023-02-22T00:06:29;2;2;
64697;PMS5003;51124;53.394;-6.294;2023-02-22T00:08:57;1;1;
64697;PMS5003;51124;53.394;-6.294;2023-02-22T00:11:25;1;1;
64697;PMS5003;51124;53.394;-6.294;2023-02-22T00:13:53;1;1;
64697;PMS5003;51124;53.394;-6.294;2023-02-22T00:16:21;0;0;
64697;PMS5003;51124;53.394;-6.294;2023-02-22T00:18:50;0;0;
64697;PMS5003;51124;53.394;-6.294;2023-02-22T00:21:19;2;1;
64697;PMS5003;51124;53.394;-6.294;2023-02-22T00:23:47;2;2;
64697;PMS5003;51124;53.394;-6.294;2023-02-22T00:26:16;1;1;
64697;PMS5003;51124;53.394;-6.294;2023-02-22T00:28:45;1;1;
64697;PMS5003;51124;53.394;-6.294;2023-02-22T00:31:15;0;0;
64697;PMS5003;51124;53.394;-6.294;2023-02-22T00:33:43;2;1;
64697;PMS5003;51124;53.394;-6.294;2023-02-22T00:36:11;2;1;
64697;PMS5003;51124;53.394;-6.294;2023-02-22T00:38:39;1;1;
64697;PMS5003;51124;53.394;-6.294;2023-02-22T00:41:07;1;1;
64697;PMS5003;51124;53.394;-6.294;2023-02-22T00:43:35;1;1;
64697;PMS5003;51124;53.394;-6.294;2023-02-22T00:46:02;1;1;
64697;PMS5003;51124;53.394;-6.294;2023-02-22T00:48:30;1;1;
64697;PMS5003;51124;53.394;-6.294;2023-02-22T00:50:57;0;0;
64697;PMS5003;51124;53.394;-6.294;2023-02-22T00:53:25;1;1;
64697;PMS5003;51124;53.394;-6.294;2023-02-22T00:55:52;0;0;
64697;PMS5003;51124;53.394;-6.294;2023-02-22T00:58:20;1;1;
64697;PMS5003;51124;53.394;-6.294;2023-02-22T01:00:47;1;1;
64697;PMS5003;51124;53.394;-6.294;2023-02-22T01:03:16;1;1;
64697;PMS5003;51124;53.394;-6.294;2023-02-22T01:05:44;1;1;
64697;PMS5003;51124;53.394;-6.294;2023-02-22T01:08:12;0;0;
64697;PMS5003;51124;53.394;-6.294;2023-02-22T01:10:40;1;1;
64697;PMS5003;51124;53.394;-6.294;2023-02-22T01:13:08;1;1;
64697;PMS5003;51124;53.394;-6.294;2023-02-22T01:15:37;1;0;
64697;PMS5003;51124;53.394;-6.294;2023-02-22T01:18:06;1;1;
64697;PMS5003;51124;53.394;-6.294;2023-02-22T01:20:33;1;1;
64697;PMS5003;51124;53.394;-6.294;2023-02-22T01:23:01;1;1;
64697;PMS5003;51124;53.394;-6.294;2023-02-22T01:25:30;0;0;
64697;PMS5003;51124;53.394;-6.294;2023-02-22T01:27:58;1;1;
64697;PMS5003;51124;53.394;-6.294;2023-02-22T01:30:28;1;1;
64697;PMS5003;51124;53.394;-6.294;2023-02-22T01:32:56;1;1;
64697;PMS5003;51124;53.394;-6.294;2023-02-22T01:35:26;0;0;
64697;PMS5003;51124;53.394;-6.294;2023-02-22T01:37:55;1;1;
64697;PMS5003;51124;53.394;-6.294;2023-02-22T01:40:25;2;2;
64697;PMS5003;51124;53.394;-6.294;2023-02-22T01:42:56;0;0;
64697;PMS5003;51124;53.394;-6.294;2023-02-22T01:45:37;1;1;
64697;PMS5003;51124;53.394;-6.294;2023-02-22T01:47:59;1;1;
64697;PMS5003;51124;53.394;-6.294;2023-02-22T01:50:30;1;1;
64697;PMS5003;51124;53.394;-6.294;2023-02-22T01:53:01;3;1;
64697;PMS5003;51124;53.394;-6.294;2023-02-22T01:55:30;1;1;
64697;PMS5003;51124;53.394;-6.294;2023-02-22T01:57:58;1;1;
64697;PMS5003;51124;53.394;-6.294;2023-02-22T02:00:27;1;1;
64697;PMS5003;51124;53.394;-6.294;2023-02-22T02:02:55;1;1;
64697;PMS5003;51124;53.394;-6.294;2023-02-22T02:05:26;1;1;
64697;PMS5003;51124;53.394;-6.294;2023-02-22T02:07:55;1;1;
64697;PMS5003;51124;53.394;-6.294;2023-02-22T02:10:25;2;2;
64697;PMS5003;51124;53.394;-6.294;2023-02-22T02:12:52;0;0;
64697;PMS5003;51124;53.394;-6.294;2023-02-22T02:15:22;2;2;
64697;PMS5003;51124;53.394;-6.294;2023-02-22T02:17:52;0;0;
64697;PMS5003;51124;53.394;-6.294;2023-02-22T02:20:24;1;1;
64697;PMS5003;51124;53.394;-6.294;2023-02-22T02:22:49;2;2;
64697;PMS5003;51124;53.394;-6.294;2023-02-22T02:25:29;2;2;
64697;PMS5003;51124;53.394;-6.294;2023-02-22T02:28:00;2;2;
64697;PMS5003;51124;53.394;-6.294;2023-02-22T02:30:30;0;0;
64697;PMS5003;51124;53.394;-6.294;2023-02-22T02:32:53;1;1;
64697;PMS5003;51124;53.394;-6.294;2023-02-22T02:35:27;0;0;
64697;PMS5003;51124;53.394;-6.294;2023-02-22T02:37:54;1;1;
64697;PMS5003;51124;53.394;-6.294;2023-02-22T02:40:19;1;1;
64697;PMS5003;51124;53.394;-6.294;2023-02-22T02:42:54;1;1;
64697;PMS5003;51124;53.394;-6.294;2023-02-22T02:45:20;1;1;
64697;PMS5003;51124;53.394;-6.294;2023-02-22T02:47:45;1;1;
64697;PMS5003;51124;53.394;-6.294;2023-02-22T02:50:19;0;0;
64697;PMS5003;51124;53.394;-6.294;2023-02-22T02:52:51;1;1;
64697;PMS5003;51124;53.394;-6.294;2023-02-22T02:55:21;1;1;
64697;PMS5003;51124;53.394;-6.294;2023-02-22T02:57:50;0;0;
64697;PMS5003;51124;53.394;-6.294;2023-02-22T03:00:19;1;1;
64697;PMS5003;51124;53.394;-6.294;2023-02-22T03:02:57;1;1;
64697;PMS5003;51124;53.394;-6.294;2023-02-22T03:05:27;1;1;
64697;PMS5003;51124;53.394;-6.294;2023-02-22T03:07:49;1;1;
64697;PMS5003;51124;53.394;-6.294;2023-02-22T03:10:17;0;0;
64697;PMS5003;51124;53.394;-6.294;2023-02-22T03:12:43;1;1;
64697;PMS5003;51124;53.394;-6.294;2023-02-22T03:15:18;1;1;
64697;PMS5003;51124;53.394;-6.294;2023-02-22T03:17:47;1;1;
64697;PMS5003;51124;53.394;-6.294;2023-02-22T03:20:21;1;1;
64697;PMS5003;51124;53.394;-6.294;2023-02-22T03:22:54;1;1;
64697;PMS5003;51124;53.394;-6.294;2023-02-22T03:25:29;1;1;
64697;PMS5003;51124;53.394;-6.294;2023-02-22T03:28:03;1;1;
64697;PMS5003;51124;53.394;-6.294;2023-02-22T03:30:34;1;1;
64697;PMS5003;51124;53.394;-6.294;2023-02-22T03:33:07;1;1;
64697;PMS5003;51124;53.394;-6.294;2023-02-22T03:35:39;1;1;
64697;PMS5003;51124;53.394;-6.294;2023-02-22T03:38:12;1;1;
64697;PMS5003;51124;53.394;-6.294;2023-02-22T03:40:43;2;2;
64697;PMS5003;51124;53.394;-6.294;2023-02-22T03:43:14;2;2;
64697;PMS5003;51124;53.394;-6.294;2023-02-22T03:45:45;1;1;
64697;PMS5003;51124;53.394;-6.294;2023-02-22T03:48:16;1;1;
64697;PMS5003;51124;53.394;-6.294;2023-02-22T03:50:48;1;1;
64697;PMS5003;51124;53.394;-6.294;2023-02-22T03:53:17;0;0;
64697;PMS5003;51124;53.394;-6.294;2023-02-22T03:55:45;1;1;
64697;PMS5003;51124;53.394;-6.294;2023-02-22T03:58:16;1;1;
64697;PMS5003;51124;53.394;-6.294;2023-02-22T04:00:46;3;0;
64697;PMS5003;51124;53.394;-6.294;2023-02-22T04:03:13;2;0;
64697;PMS5003;51124;53.394;-6.294;2023-02-22T04:05:41;1;1;
64697;PMS5003;51124;53.394;-6.294;2023-02-22T04:08:08;1;1;
64697;PMS5003;51124;53.394;-6.294;2023-02-22T04:10:35;0;0;
64697;PMS5003;51124;53.394;-6.294;2023-02-22T04:13:02;0;0;
64697;PMS5003;51124;53.394;-6.294;2023-02-22T04:15:30;1;1;
64697;PMS5003;51124;53.394;-6.294;2023-02-22T04:17:57;1;1;
64697;PMS5003;51124;53.394;-6.294;2023-02-22T04:20:25;1;1;
64697;PMS5003;51124;53.394;-6.294;2023-02-22T04:22:52;1;1;
64697;PMS5003;51124;53.394;-6.294;2023-02-22T04:25:20;1;1;
64697;PMS5003;51124;53.394;-6.294;2023-02-22T04:27:48;1;1;
64697;PMS5003;51124;53.394;-6.294;2023-02-22T04:30:16;1;1;
64697;PMS5003;51124;53.394;-6.294;2023-02-22T04:32:44;1;1;
64697;PMS5003;51124;53.394;-6.294;2023-02-22T04:35:11;1;1;
64697;PMS5003;51124;53.394;-6.294;2023-02-22T04:37:39;1;1;
64697;PMS5003;51124;53.394;-6.294;2023-02-22T04:40:07;1;1;
64697;PMS5003;51124;53.394;-6.294;2023-02-22T04:42:35;1;1;
64697;PMS5003;51124;53.394;-6.294;2023-02-22T04:45:03;1;1;
64697;PMS5003;51124;53.394;-6.294;2023-02-22T04:47:32;0;0;
64697;PMS5003;51124;53.394;-6.294;2023-02-22T04:49:59;1;1;
64697;PMS5003;51124;53.394;-6.294;2023-02-22T04:52:27;1;1;
64697;PMS5003;51124;53.394;-6.294;2023-02-22T04:54:54;0;0;
64697;PMS5003;51124;53.394;-6.294;2023-02-22T04:57:21;1;1;
64697;PMS5003;51124;53.394;-6.294;2023-02-22T04:59:49;0;0;
64697;PMS5003;51124;53.394;-6.294;2023-02-22T05:02:17;0;0;
64697;PMS5003;51124;53.394;-6.294;2023-02-22T05:04:45;0;0;
64697;PMS5003;51124;53.394;-6.294;2023-02-22T05:07:12;1;1;
64697;PMS5003;51124;53.394;-6.294;2023-02-22T05:09:40;0;0;
64697;PMS5003;51124;53.394;-6.294;2023-02-22T05:12:07;0;0;
64697;PMS5003;51124;53.394;-6.294;2023-02-22T05:14:35;0;0;
64697;PMS5003;51124;53.394;-6.294;2023-02-22T05:17:02;1;1;
64697;PMS5003;51124;53.394;-6.294;2023-02-22T05:19:29;0;0;
64697;PMS5003;51124;53.394;-6.294;2023-02-22T05:21:57;0;0;
64697;PMS5003;51124;53.394;-6.294;2023-02-22T05:24:24;0;0;
64697;PMS5003;51124;53.394;-6.294;2023-02-22T05:26:52;0;0;
64697;PMS5003;51124;53.394;-6.294;2023-02-22T05:29:20;0;0;
64697;PMS5003;51124;53.394;-6.294;2023-02-22T05:31:47;2;0;
64697;PMS5003;51124;53.394;-6.294;2023-02-22T05:34:15;0;0;
64697;PMS5003;51124;53.394;-6.294;2023-02-22T05:36:43;0;0;
64697;PMS5003;51124;53.394;-6.294;2023-02-22T05:39:11;1;1;
64697;PMS5003;51124;53.394;-6.294;2023-02-22T05:41:39;1;1;
64697;PMS5003;51124;53.394;-6.294;2023-02-22T05:44:06;0;0;
64697;PMS5003;51124;53.394;-6.294;2023-02-22T05:46:34;0;0;
64697;PMS5003;51124;53.394;-6.294;2023-02-22T05:49:02;1;1;
64697;PMS5003;51124;53.394;-6.294;2023-02-22T05:51:30;0;0;
64697;PMS5003;51124;53.394;-6.294;2023-02-22T05:53:58;0;0;
64697;PMS5003;51124;53.394;-6.294;2023-02-22T05:56:26;0;0;
64697;PMS5003;51124;53.394;-6.294;2023-02-22T05:58:54;0;0;
64697;PMS5003;51124;53.394;-6.294;2023-02-22T06:01:23;0;0;
64697;PMS5003;51124;53.394;-6.294;2023-02-22T06:03:51;0;0;
64697;PMS5003;51124;53.394;-6.294;2023-02-22T06:06:19;0;0;
64697;PMS5003;51124;53.394;-6.294;2023-02-22T06:08:47;1;1;
64697;PMS5003;51124;53.394;-6.294;2023-02-22T06:11:14;1;1;
64697;PMS5003;51124;53.394;-6.294;2023-02-22T06:13:44;1;0;
64697;PMS5003;51124;53.394;-6.294;2023-02-22T06:16:15;0;0;
64697;PMS5003;51124;53.394;-6.294;2023-02-22T06:18:43;0;0;
64697;PMS5003;51124;53.394;-6.294;2023-02-22T06:21:11;0;0;
64697;PMS5003;51124;53.394;-6.294;2023-02-22T06:23:38;0;0;
64697;PMS5003;51124;53.394;-6.294;2023-02-22T06:26:06;0;0;
64697;PMS5003;51124;53.394;-6.294;2023-02-22T06:28:33;0;0;
64697;PMS5003;51124;53.394;-6.294;2023-02-22T06:31:00;1;1;
64697;PMS5003;51124;53.394;-6.294;2023-02-22T06:33:28;0;0;
64697;PMS5003;51124;53.394;-6.294;2023-02-22T06:35:55;0;0;
64697;PMS5003;51124;53.394;-6.294;2023-02-22T06:38:23;0;0;
64697;PMS5003;51124;53.394;-6.294;2023-02-22T06:40:51;0;0;
64697;PMS5003;51124;53.394;-6.294;2023-02-22T06:43:18;0;0;
64697;PMS5003;51124;53.394;-6.294;2023-02-22T06:45:46;1;0;
64697;PMS5003;51124;53.394;-6.294;2023-02-22T06:48:13;0;0;
64697;PMS5003;51124;53.394;-6.294;2023-02-22T06:50:40;0;0;
64697;PMS5003;51124;53.394;-6.294;2023-02-22T06:53:08;0;0;
64697;PMS5003;51124;53.394;-6.294;2023-02-22T06:55:35;0;0;
64697;PMS5003;51124;53.394;-6.294;2023-02-22T06:58:02;0;0;
64697;PMS5003;51124;53.394;-6.294;2023-02-22T07:00:30;0;0;
64697;PMS5003;51124;53.394;-6.294;2023-02-22T07:02:58;0;0;
64697;PMS5003;51124;53.394;-6.294;2023-02-22T07:05:27;0;0;
64697;PMS5003;51124;53.394;-6.294;2023-02-22T07:07:59;0;0;
64697;PMS5003;51124;53.394;-6.294;2023-02-22T07:10:28;0;0;
64697;PMS5003;51124;53.394;-6.294;2023-02-22T07:12:57;0;0;
64697;PMS5003;51124;53.394;-6.294;2023-02-22T07:15:25;0;0;
64697;PMS5003;51124;53.394;-6.294;2023-02-22T07:17:54;0;0;
64697;PMS5003;51124;53.394;-6.294;2023-02-22T07:20:21;0;0;
64697;PMS5003;51124;53.394;-6.294;2023-02-22T07:22:50;0;0;
64697;PMS5003;51124;53.394;-6.294;2023-02-22T07:25:18;0;0;
64697;PMS5003;51124;53.394;-6.294;2023-02-22T07:27:47;0;0;
64697;PMS5003;51124;53.394;-6.294;2023-02-22T07:30:15;0;0;
64697;PMS5003;51124;53.394;-6.294;2023-02-22T07:32:45;0;0;
64697;PMS5003;51124;53.394;-6.294;2023-02-22T07:35:13;0;0;
64697;PMS5003;51124;53.394;-6.294;2023-02-22T07:37:41;1;0;
64697;PMS5003;51124;53.394;-6.294;2023-02-22T07:40:09;0;0;
64697;PMS5003;51124;53.394;-6.294;2023-02-22T07:42:49;0;0;
64697;PMS5003;51124;53.394;-6.294;2023-02-22T07:45:06;0;0;
64697;PMS5003;51124;53.394;-6.294;2023-02-22T07:47:34;0;0;
64697;PMS5003;51124;53.394;-6.294;2023-02-22T07:50:01;0;0;
64697;PMS5003;51124;53.394;-6.294;2023-02-22T07:52:29;0;0;
64697;PMS5003;51124;53.394;-6.294;2023-02-22T07:54:56;0;0;
64697;PMS5003;51124;53.394;-6.294;2023-02-22T07:57:23;0;0;
64697;PMS5003;51124;53.394;-6.294;2023-02-22T07:59:51;0;0;
64697;PMS5003;51124;53.394;-6.294;2023-02-22T08:02:18;0;0;
64697;PMS5003;51124;53.394;-6.294;2023-02-22T08:04:46;0;0;
64697;PMS5003;51124;53.394;-6.294;2023-02-22T08:07:13;0;0;
64697;PMS5003;51124;53.394;-6.294;2023-02-22T08:09:41;0;0;
64697;PMS5003;51124;53.394;-6.294;2023-02-22T08:12:09;0;0;
64697;PMS5003;51124;53.394;-6.294;2023-02-22T08:14:37;0;0;
64697;PMS5003;51124;53.394;-6.294;2023-02-22T08:17:04;0;0;
64697;PMS5003;51124;53.394;-6.294;2023-02-22T08:19:32;0;0;
64697;PMS5003;51124;53.394;-6.294;2023-02-22T08:21:59;0;0;
64697;PMS5003;51124;53.394;-6.294;2023-02-22T08:24:27;0;0;
64697;PMS5003;51124;53.394;-6.294;2023-02-22T08:26:55;0;0;
64697;PMS5003;51124;53.394;-6.294;2023-02-22T08:29:22;0;0;
64697;PMS5003;51124;53.394;-6.294;2023-02-22T08:31:51;0;0;
64697;PMS5003;51124;53.394;-6.294;2023-02-22T08:34:19;1;0;
64697;PMS5003;51124;53.394;-6.294;2023-02-22T08:36:46;0;0;
64697;PMS5003;51124;53.394;-6.294;2023-02-22T08:39:14;0;0;
64697;PMS5003;51124;53.394;-6.294;2023-02-22T08:41:42;0;0;
64697;PMS5003;51124;53.394;-6.294;2023-02-22T08:44:10;0;0;
64697;PMS5003;51124;53.394;-6.294;2023-02-22T08:46:38;0;0;
64697;PMS5003;51124;53.394;-6.294;2023-02-22T08:49:06;0;0;
64697;PMS5003;51124;53.394;-6.294;2023-02-22T08:51:34;0;0;
64697;PMS5003;51124;53.394;-6.294;2023-02-22T08:54:02;0;0;
64697;PMS5003;51124;53.394;-6.294;2023-02-22T08:56:30;0;0;
64697;PMS5003;51124;53.394;-6.294;2023-02-22T08:58:58;1;0;
64697;PMS5003;51124;53.394;-6.294;2023-02-22T09:01:25;1;0;
64697;PMS5003;51124;53.394;-6.294;2023-02-22T09:03:53;0;0;
64697;PMS5003;51124;53.394;-6.294;2023-02-22T09:06:21;0;0;
64697;PMS5003;51124;53.394;-6.294;2023-02-22T09:08:49;0;0;
64697;PMS5003;51124;53.394;-6.294;2023-02-22T09:11:17;0;0;
64697;PMS5003;51124;53.394;-6.294;2023-02-22T09:13:44;1;0;
64697;PMS5003;51124;53.394;-6.294;2023-02-22T09:16:12;0;0;
64697;PMS5003;51124;53.394;-6.294;2023-02-22T09:18:40;0;0;
64697;PMS5003;51124;53.394;-6.294;2023-02-22T09:21:07;0;0;
64697;PMS5003;51124;53.394;-6.294;2023-02-22T09:23:35;0;0;
64697;PMS5003;51124;53.394;-6.294;2023-02-22T09:26:03;0;0;
64697;PMS5003;51124;53.394;-6.294;2023-02-22T09:28:31;0;0;
64697;PMS5003;51124;53.394;-6.294;2023-02-22T09:30:59;0;0;
64697;PMS5003;51124;53.394;-6.294;2023-02-22T09:33:26;0;0;
64697;PMS5003;51124;53.394;-6.294;2023-02-22T09:35:53;0;0;
64697;PMS5003;51124;53.394;-6.294;2023-02-22T09:38:22;0;0;
64697;PMS5003;51124;53.394;-6.294;2023-02-22T09:40:50;0;0;
64697;PMS5003;51124;53.394;-6.294;2023-02-22T09:43:22;1;0;
64697;PMS5003;51124;53.394;-6.294;2023-02-22T09:45:53;0;0;
64697;PMS5003;51124;53.394;-6.294;2023-02-22T09:48:15;0;0;
64697;PMS5003;51124;53.394;-6.294;2023-02-22T09:50:43;0;0;
64697;PMS5003;51124;53.394;-6.294;2023-02-22T09:53:16;0;0;
64697;PMS5003;51124;53.394;-6.294;2023-02-22T09:55:49;0;0;
64697;PMS5003;51124;53.394;-6.294;2023-02-22T09:58:19;0;0;
64697;PMS5003;51124;53.394;-6.294;2023-02-22T10:00:51;0;0;
64697;PMS5003;51124;53.394;-6.294;2023-02-22T10:03:25;0;0;
64697;PMS5003;51124;53.394;-6.294;2023-02-22T10:05:59;0;0;
64697;PMS5003;51124;53.394;-6.294;2023-02-22T10:08:32;0;0;
64697;PMS5003;51124;53.394;-6.294;2023-02-22T10:11:04;0;0;
64697;PMS5003;51124;53.394;-6.294;2023-02-22T10:13:32;0;0;
64697;PMS5003;51124;53.394;-6.294;2023-02-22T10:16:00;0;0;
64697;PMS5003;51124;53.394;-6.294;2023-02-22T10:18:44;0;0;
64697;PMS5003;51124;53.394;-6.294;2023-02-22T10:21:03;0;0;
64697;PMS5003;51124;53.394;-6.294;2023-02-22T10:23:31;0;0;
64697;PMS5003;51124;53.394;-6.294;2023-02-22T10:25:55;0;0;
64697;PMS5003;51124;53.394;-6.294;2023-02-22T10:28:26;0;0;
64697;PMS5003;51124;53.394;-6.294;2023-02-22T10:30:59;0;0;
64697;PMS5003;51124;53.394;-6.294;2023-02-22T10:33:32;0;0;
64697;PMS5003;51124;53.394;-6.294;2023-02-22T10:36:08;0;0;
64697;PMS5003;51124;53.394;-6.294;2023-02-22T10:38:32;0;0;
64697;PMS5003;51124;53.394;-6.294;2023-02-22T10:41:02;0;0;
64697;PMS5003;51124;53.394;-6.294;2023-02-22T10:43:32;0;0;
64697;PMS5003;51124;53.394;-6.294;2023-02-22T10:46:01;0;0;
64697;PMS5003;51124;53.394;-6.294;2023-02-22T10:48:31;0;0;
64697;PMS5003;51124;53.394;-6.294;2023-02-22T10:51:03;0;0;
64697;PMS5003;51124;53.394;-6.294;2023-02-22T10:53:32;0;0;
64697;PMS5003;51124;53.394;-6.294;2023-02-22T10:56:05;0;0;
64697;PMS5003;51124;53.394;-6.294;2023-02-22T10:58:43;0;0;
64697;PMS5003;51124;53.394;-6.294;2023-02-22T11:01:07;0;0;
64697;PMS5003;51124;53.394;-6.294;2023-02-22T11:03:35;0;0;
64697;PMS5003;51124;53.394;-6.294;2023-02-22T11:06:10;0;0;
64697;PMS5003;51124;53.394;-6.294;2023-02-22T11:08:34;1;0;
64697;PMS5003;51124;53.394;-6.294;2023-02-22T11:11:02;0;0;
64697;PMS5003;51124;53.394;-6.294;2023-02-22T11:13:36;0;0;
64697;PMS5003;51124;53.394;-6.294;2023-02-22T11:16:16;2;2;
64697;PMS5003;51124;53.394;-6.294;2023-02-22T11:18:35;0;0;
64697;PMS5003;51124;53.394;-6.294;2023-02-22T11:21:03;0;0;
64697;PMS5003;51124;53.394;-6.294;2023-02-22T11:23:32;0;0;
64697;PMS5003;51124;53.394;-6.294;2023-02-22T11:26:03;0;0;
64697;PMS5003;51124;53.394;-6.294;2023-02-22T11:28:33;0;0;
64697;PMS5003;51124;53.394;-6.294;2023-02-22T11:31:09;1;1;
64697;PMS5003;51124;53.394;-6.294;2023-02-22T11:33:40;0;0;
64697;PMS5003;51124;53.394;-6.294;2023-02-22T11:36:05;0;0;
64697;PMS5003;51124;53.394;-6.294;2023-02-22T11:38:33;0;0;
64697;PMS5003;51124;53.394;-6.294;2023-02-22T11:41:04;1;1;
64697;PMS5003;51124;53.394;-6.294;2023-02-22T11:43:28;1;1;
64697;PMS5003;51124;53.394;-6.294;2023-02-22T11:45:58;0;0;
64697;PMS5003;51124;53.394;-6.294;2023-02-22T11:48:29;1;1;
64697;PMS5003;51124;53.394;-6.294;2023-02-22T11:51:11;2;0;
64697;PMS5003;51124;53.394;-6.294;2023-02-22T11:53:30;0;0;
64697;PMS5003;51124;53.394;-6.294;2023-02-22T11:55:57;0;0;
64697;PMS5003;51124;53.394;-6.294;2023-02-22T11:58:28;0;0;
64697;PMS5003;51124;53.394;-6.294;2023-02-22T12:00:56;0;0;
64697;PMS5003;51124;53.394;-6.294;2023-02-22T12:03:36;2;2;
64697;PMS5003;51124;53.394;-6.294;2023-02-22T12:06:02;2;2;
64697;PMS5003;51124;53.394;-6.294;2023-02-22T12:08:28;0;0;
64697;PMS5003;51124;53.394;-6.294;2023-02-22T12:10:57;3;1;
64697;PMS5003;51124;53.394;-6.294;2023-02-22T12:13:29;0;0;
64697;PMS5003;51124;53.394;-6.294;2023-02-22T12:15:58;1;1;
64697;PMS5003;51124;53.394;-6.294;2023-02-22T12:18:24;1;1;
64697;PMS5003;51124;53.394;-6.294;2023-02-22T12:20:50;0;0;
64697;PMS5003;51124;53.394;-6.294;2023-02-22T12:23:22;2;1;
64697;PMS5003;51124;53.394;-6.294;2023-02-22T12:25:56;1;1;
64697;PMS5003;51124;53.394;-6.294;2023-02-22T12:28:29;1;0;
64697;PMS5003;51124;53.394;-6.294;2023-02-22T12:31:04;0;0;
64697;PMS5003;51124;53.394;-6.294;2023-02-22T12:33:41;0;0;
64697;PMS5003;51124;53.394;-6.294;2023-02-22T12:36:03;0;0;
64697;PMS5003;51124;53.394;-6.294;2023-02-22T12:38:38;1;1;
64697;PMS5003;51124;53.394;-6.294;2023-02-22T12:41:13;1;1;
64697;PMS5003;51124;53.394;-6.294;2023-02-22T12:43:40;1;0;
64697;PMS5003;51124;53.394;-6.294;2023-02-22T12:46:12;1;1;
64697;PMS5003;51124;53.394;-6.294;2023-02-22T12:48:45;0;0;
64697;PMS5003;51124;53.394;-6.294;2023-02-22T12:51:29;3;1;
64697;PMS5003;51124;53.394;-6.294;2023-02-22T12:54:04;0;0;
64697;PMS5003;51124;53.394;-6.294;2023-02-22T12:56:30;3;2;
64697;PMS5003;51124;53.394;-6.294;2023-02-22T12:59:02;2;1;
64697;PMS5003;51124;53.394;-6.294;2023-02-22T13:01:26;2;2;
64697;PMS5003;51124;53.394;-6.294;2023-02-22T13:03:59;2;2;
64697;PMS5003;51124;53.394;-6.294;2023-02-22T13:06:30;2;2;
64697;PMS5003;51124;53.394;-6.294;2023-02-22T13:09:06;5;5;
64697;PMS5003;51124;53.394;-6.294;2023-02-22T13:11:36;6;6;
64697;PMS5003;51124;53.394;-6.294;2023-02-22T13:14:07;6;6;
64697;PMS5003;51124;53.394;-6.294;2023-02-22T13:16:31;4;4;
64697;PMS5003;51124;53.394;-6.294;2023-02-22T13:18:58;9;7;
64697;PMS5003;51124;53.394;-6.294;2023-02-22T13:21:33;7;6;
64697;PMS5003;51124;53.394;-6.294;2023-02-22T13:24:00;5;5;
64697;PMS5003;51124;53.394;-6.294;2023-02-22T13:26:33;6;5;
64697;PMS5003;51124;53.394;-6.294;2023-02-22T13:28:58;9;7;
64697;PMS5003;51124;53.394;-6.294;2023-02-22T13:31:35;35;33;
64697;PMS5003;51124;53.394;-6.294;2023-02-22T13:34:07;69;62;
64697;PMS5003;51124;53.394;-6.294;2023-02-22T13:36:31;72;67;
64697;PMS5003;51124;53.394;-6.294;2023-02-22T13:39:01;70;68;
64697;PMS5003;51124;53.394;-6.294;2023-02-22T13:41:32;85;77;
64697;PMS5003;51124;53.394;-6.294;2023-02-22T13:44:01;89;78;
64697;PMS5003;51124;53.394;-6.294;2023-02-22T13:46:24;99;90;
64697;PMS5003;51124;53.394;-6.294;2023-02-22T13:48:59;102;92;
64697;PMS5003;51124;53.394;-6.294;2023-02-22T13:51:31;111;98;
64697;PMS5003;51124;53.394;-6.294;2023-02-22T13:53:58;108;101;
64697;PMS5003;51124;53.394;-6.294;2023-02-22T13:56:31;111;100;
64697;PMS5003;51124;53.394;-6.294;2023-02-22T13:58:59;112;104;
64697;PMS5003;51124;53.394;-6.294;2023-02-22T14:01:36;130;124;
64697;PMS5003;51124;53.394;-6.294;2023-02-22T14:03:56;132;125;
64697;PMS5003;51124;53.394;-6.294;2023-02-22T14:06:42;130;123;
64697;PMS5003;51124;53.394;-6.294;2023-02-22T14:08:59;136;121;
64697;PMS5003;51124;53.394;-6.294;2023-02-22T14:11:40;131;125;
64697;PMS5003;51124;53.394;-6.294;2023-02-22T14:14:14;139;132;
64697;PMS5003;51124;53.394;-6.294;2023-02-22T14:16:32;146;139;
64697;PMS5003;51124;53.394;-6.294;2023-02-22T14:19:00;157;139;
64697;PMS5003;51124;53.394;-6.294;2023-02-22T14:21:30;162;150;
64697;PMS5003;51124;53.394;-6.294;2023-02-22T14:24:05;163;151;
64697;PMS5003;51124;53.394;-6.294;2023-02-22T14:26:26;175;160;
64697;PMS5003;51124;53.394;-6.294;2023-02-22T14:28:56;170;157;
64697;PMS5003;51124;53.394;-6.294;2023-02-22T14:31:26;175;161;
64697;PMS5003;51124;53.394;-6.294;2023-02-22T14:34:00;179;162;
64697;PMS5003;51124;53.394;-6.294;2023-02-22T14:36:22;176;166;
64697;PMS5003;51124;53.394;-6.294;2023-02-22T14:38:57;191;181;
64697;PMS5003;51124;53.394;-6.294;2023-02-22T14:41:23;195;185;
64697;PMS5003;51124;53.394;-6.294;2023-02-22T14:43:54;187;173;
64697;PMS5003;51124;53.394;-6.294;2023-02-22T14:46:26;192;175;
64697;PMS5003;51124;53.394;-6.294;2023-02-22T14:49:01;180;166;
64697;PMS5003;51124;53.394;-6.294;2023-02-22T14:51:40;179;170;
64697;PMS5003;51124;53.394;-6.294;2023-02-22T14:54:05;182;172;
64697;PMS5003;51124;53.394;-6.294;2023-02-22T14:56:40;178;168;
64697;PMS5003;51124;53.394;-6.294;2023-02-22T14:59:10;196;178;
64697;PMS5003;51124;53.394;-6.294;2023-02-22T15:01:32;183;169;
64697;PMS5003;51124;53.394;-6.294;2023-02-22T15:04:15;179;163;
64697;PMS5003;51124;53.394;-6.294;2023-02-22T15:06:34;173;162;
64697;PMS5003;51124;53.394;-6.294;2023-02-22T15:09:05;175;161;
64697;PMS5003;51124;53.394;-6.294;2023-02-22T15:11:27;175;164;
64697;PMS5003;51124;53.394;-6.294;2023-02-22T15:13:56;172;157;
64697;PMS5003;51124;53.394;-6.294;2023-02-22T15:16:26;164;149;
64697;PMS5003;51124;53.394;-6.294;2023-02-22T15:18:57;147;137;
64697;PMS5003;51124;53.394;-6.294;2023-02-22T15:21:29;211;197;
64697;PMS5003;51124;53.394;-6.294;2023-02-22T15:23:59;203;191;
64697;PMS5003;51124;53.394;-6.294;2023-02-22T15:26:30;200;187;
64697;PMS5003;51124;53.394;-6.294;2023-02-22T15:29:01;200;182;
64697;PMS5003;51124;53.394;-6.294;2023-02-22T15:31:32;188;176;
64697;PMS5003;51124;53.394;-6.294;2023-02-22T15:34:09;195;179;
64697;PMS5003;51124;53.394;-6.294;2023-02-22T15:36:31;198;185;
64697;PMS5003;51124;53.394;-6.294;2023-02-22T15:38:59;182;166;
64697;PMS5003;51124;53.394;-6.294;2023-02-22T15:41:28;197;177;
64697;PMS5003;51124;53.394;-6.294;2023-02-22T15:43:59;195;176;
64697;PMS5003;51124;53.394;-6.294;2023-02-22T15:46:29;192;178;
64697;PMS5003;51124;53.394;-6.294;2023-02-22T15:49:06;179;162;
64697;PMS5003;51124;53.394;-6.294;2023-02-22T15:51:22;183;173;
64697;PMS5003;51124;53.394;-6.294;2023-02-22T15:53:52;183;167;
64697;PMS5003;51124;53.394;-6.294;2023-02-22T15:56:24;175;164;
64697;PMS5003;51124;53.394;-6.294;2023-02-22T15:58:57;180;169;
64697;PMS5003;51124;53.394;-6.294;2023-02-22T16:01:26;193;179;
64697;PMS5003;51124;53.394;-6.294;2023-02-22T16:04:00;183;168;
64697;PMS5003;51124;53.394;-6.294;2023-02-22T16:06:29;182;175;
64697;PMS5003;51124;53.394;-6.294;2023-02-22T16:08:59;186;176;
64697;PMS5003;51124;53.394;-6.294;2023-02-22T16:11:33;184;176;
64697;PMS5003;51124;53.394;-6.294;2023-02-22T16:14:03;185;173;
64697;PMS5003;51124;53.394;-6.294;2023-02-22T16:16:37;173;165;
64697;PMS5003;51124;53.394;-6.294;2023-02-22T16:19:20;178;167;
64697;PMS5003;51124;53.394;-6.294;2023-02-22T16:21:30;187;172;
64697;PMS5003;51124;53.394;-6.294;2023-02-22T16:23:56;162;153;
64697;PMS5003;51124;53.394;-6.294;2023-02-22T16:26:25;175;163;
64697;PMS5003;51124;53.394;-6.294;2023-02-22T16:28:54;182;166;
64697;PMS5003;51124;53.394;-6.294;2023-02-22T16:31:24;180;170;
64697;PMS5003;51124;53.394;-6.294;2023-02-22T16:33:53;172;158;